Flight Track Log - Related Links

Times and Time Zones

All times are in EDT time to prevent confusion due to time zone crossing. See the GJS3657 flight status page for this flight to view local times or setup timezone preferences in your user account.


Time Position Orientation Groundspeed Altitude Reporting Facility
EDT Latitude Longitude Course Direction KTS MPH feet Rate Location/Type
Fri 11:53:26 PM 42.0000 -87.9333 20° North 155 178 1,300  Level Chicago TRACON
Fri 11:54:20 PM 42.0333 -87.9167 20° North 201 231 3,200 1,943 Climbing Chicago TRACON
Fri 11:55:11 PM 42.0614 -87.8733 49° Northeast 202 232 4,700 1,514 Climbing Chicago Center
Fri 11:56:11 PM 42.1186 -87.8117 39° Northeast 252 290 6,000 1,835 Climbing Chicago Center
Fri 11:57:12 PM 42.1867 -87.7503 34° Northeast 293 337 8,400 2,508 Climbing Chicago Center
Fri 11:58:13 PM 42.2581 -87.6886 33° Northeast 305 351 11,100 2,459 Climbing Chicago Center
Fri 11:59:14 PM 42.2797 -87.5706 76° East 325 374 13,400 2,115 Climbing Chicago Center
Sat 12:00:15 AM 42.2792 -87.4031 90° East 370 426 15,400 1,967 Climbing Chicago Center
Sat 12:01:16 AM 42.2794 -87.2581 90° East 387 445 17,400 1,869 Climbing Chicago Center
Sat 12:02:17 AM 42.2794 -87.1078 90° East 399 459 19,200 1,736 Climbing Chicago Center
Sat 12:03:17 AM 42.2817 -86.9533 89° East 408 470 20,900 1,537 Climbing Chicago Center
Sat 12:04:18 AM 42.2914 -86.7936 85° East 423 487 22,300 1,279 Climbing Chicago Center
Sat 12:05:19 AM 42.2956 -86.6431 88° East 438 504 23,500 1,180 Climbing Chicago Center
Sat 12:06:20 AM 42.3019 -86.4736 87° East 456 525 24,700 1,140 Climbing Chicago Center
Sat 12:07:20 AM 42.3081 -86.2981 87° East 468 539 25,800 1,140 Climbing Chicago Center
Sat 12:08:21 AM 42.3150 -86.0803 87° East 485 558 27,000 1,131 Climbing Chicago Center
Sat 12:09:22 AM 42.3136 -85.8953 91° East 494 568 28,100 1,041 Climbing Chicago Center
Sat 12:10:22 AM 42.3111 -85.7083 91° East 501 577 29,100 992 Climbing Chicago Center
Sat 12:11:23 AM 42.3089 -85.5181 91° East 508 585 30,100 984 Climbing Chicago Center
Sat 12:12:24 AM 42.3064 -85.3264 91° East 513 590 31,100 992 Climbing Chicago Center
Sat 12:13:24 AM 42.3022 -85.1375 92° East 509 586 32,100 989 Climbing Chicago Center
Sat 12:15:26 AM 42.2978 -84.7578 91° East 509 586 34,100 890 Climbing Chicago Center
Sat 12:16:26 AM 42.3189 -84.5683 81° East 510 587 34,800 645 Climbing Chicago Center
Sat 12:17:27 AM 42.3400 -84.3772 81° East 516 594 35,400 541 Climbing Chicago Center
Sat 12:18:28 AM 42.3614 -84.1811 82° East 525 604 35,900 545 Climbing Chicago Center
Sat 12:19:28 AM 42.3819 -83.9825 82° East 533 613 36,500 595 Climbing Chicago Center
Sat 12:20:29 AM 42.4039 -83.7822 81° East 539 620 37,100 645 Climbing Chicago Center
Sat 12:21:29 AM 42.4231 -83.5825 83° East 538 619 37,800 744 Climbing Chicago Center
Sat 12:22:30 AM 42.4469 -83.3469 82° East 531 611 38,600 590 Climbing Chicago Center
Sat 12:23:31 AM 42.4664 -83.1533 82° East 524 603 39,000 179 Climbing Chicago Center
Sat 12:24:44 AM 42.4861 -82.9369 83° East 516 594 39,000  Level Cleveland Center
Sat 12:25:44 AM 42.5025 -82.7461 83° East 516 594 39,000  Level Cleveland Center
Sat 12:26:44 AM 42.5203 -82.5550 83° East 516 594 39,000  Level Cleveland Center
Sat 12:27:44 AM 42.5381 -82.3697 83° East 506 582 39,000  Level Cleveland Center
Sat 12:28:44 AM 42.5556 -82.1786 83° East 501 577 39,000  Level Cleveland Center
Sat 12:29:44 AM 42.5703 -81.9900 84° East 501 577 39,000  Level Cleveland Center
Sat 12:30:44 AM 42.5872 -81.8042 83° East 501 577 39,000  Level Cleveland Center
Sat 12:31:44 AM 42.6058 -81.6017 83° East 495 570 39,000  Level Cleveland Center
Sat 12:32:44 AM 42.6219 -81.4156 83° East 505 581 39,000  Level Cleveland Center
Sat 12:33:44 AM 42.6356 -81.2294 84° East 496 571 39,000  Level Cleveland Center
Sat 12:34:44 AM 42.6511 -81.0433 83° East 491 565 39,000  Level Cleveland Center
Sat 12:35:44 AM 42.6642 -80.8797 84° East 491 565 39,000  Level Cleveland Center
Sat 12:36:44 AM 42.6769 -80.6933 85° East 497 572 39,000  Level Cleveland Center
Sat 12:37:44 AM 42.6914 -80.5125 84° East 497 572 39,000  Level Cleveland Center
Sat 12:38:44 AM 42.7058 -80.3261 84° East 497 572 39,000  Level Cleveland Center
Sat 12:39:44 AM 42.7200 -80.1453 84° East 491 565 39,000  Level Cleveland Center
Sat 12:40:44 AM 42.7356 -79.9444 84° East 491 565 39,000  Level Cleveland Center
Sat 12:41:44 AM 42.7469 -79.7578 85° East 486 559 39,000  Level Cleveland Center
Sat 12:42:44 AM 42.7600 -79.5764 84° East 486 559 39,000  Level Cleveland Center
Sat 12:43:44 AM 42.7708 -79.3925 85° East 486 559 39,000  Level Cleveland Center
Sat 12:44:44 AM 42.7814 -79.2083 85° East 481 554 39,000  Level Cleveland Center
Sat 12:45:44 AM 42.7936 -79.0269 85° East 481 554 39,000  Level Cleveland Center
Sat 12:46:44 AM 42.8036 -78.8456 86° East 481 554 39,000  Level Cleveland Center
Sat 12:47:44 AM 42.8133 -78.6642 86° East 481 554 39,000  Level Cleveland Center
Sat 12:48:44 AM 42.8247 -78.4828 85° East 481 554 39,000  Level Cleveland Center
Sat 12:49:44 AM 42.8339 -78.3042 86° East 481 554 39,000  Level Cleveland Center
Sat 12:50:44 AM 42.8431 -78.1481 85° East 476 548 39,000  Level Cleveland Center
Sat 12:51:44 AM 42.8517 -77.9692 86° East 476 548 39,000  Level Cleveland Center
Sat 12:52:44 AM 42.8622 -77.7903 85° East 476 548 39,000  Level Cleveland Center
Sat 12:54:22 AM 42.8756 -77.5042 86° East 476 548 39,000  Level Boston Center
Sat 12:55:22 AM 42.8833 -77.3233 87° East 476 548 39,000  Level Boston Center
Sat 12:56:22 AM 42.8908 -77.1481 87° East 471 542 39,000  Level Boston Center
Sat 12:57:22 AM 42.8981 -76.9700 87° East 471 542 39,000  Level Boston Center
Sat 12:58:34 AM 42.9050 -76.7889 87° East 471 542 39,000  Level Boston Center
Sat 12:59:34 AM 42.9158 -76.5572 86° East 471 542 39,000  Level Boston Center
Sat 01:00:34 AM 42.9222 -76.3789 87° East 476 548 39,000 -50 Level Boston Center
Sat 01:01:34 AM 42.9261 -76.1975 88° East 476 548 38,900  Descending Boston Center
Sat 01:02:37 AM 42.9361 -76.0167 86° East 476 548 39,000 49 Climbing Boston Center
Sat 01:03:36 AM 42.9561 -75.8389 81° East 476 548 39,000  Level Boston Center
Sat 01:04:36 AM 42.9822 -75.6644 78° East 476 548 39,000  Level Boston Center
Sat 01:05:36 AM 42.9961 -75.5344 82° East 482 555 39,000  Level Boston Center
Sat 01:06:36 AM 43.0228 -75.3172 80° East 482 555 39,000  Level Boston Center
Sat 01:07:35 AM 43.0458 -75.1392 80° East 482 555 39,000  Level Boston Center
Sat 01:08:35 AM 43.0686 -74.9583 80° East 482 555 39,000  Level Boston Center
Sat 01:09:34 AM 43.0892 -74.7772 81° East 482 555 39,000  Level Boston Center
Sat 01:10:34 AM 43.1117 -74.5958 80° East 482 555 39,000  Level Boston Center
Sat 01:11:34 AM 43.1336 -74.4147 81° East 482 555 39,000  Level Boston Center
Sat 01:12:34 AM 43.1533 -74.2303 82° East 482 555 39,000  Level Boston Center
Sat 01:13:34 AM 43.1747 -74.0514 81° East 482 555 39,000  Level Boston Center
Sat 01:14:34 AM 43.1939 -73.8669 82° East 482 555 39,000  Level Boston Center
Sat 01:15:34 AM 43.2169 -73.6681 81° East 482 555 39,000 -50 Level Boston Center
Sat 01:16:34 AM 43.2356 -73.4917 82° East 477 549 38,900 -942 Descending Boston Center
Sat 01:17:35 AM 43.2556 -73.3353 80° East 477 549 37,100 -2,000 Descending Boston Center
Sat 01:18:34 AM 43.2756 -73.1531 81° East 472 543 34,900 -2,182 Descending Boston Center
Sat 01:19:36 AM 43.2933 -72.9736 82° East 472 543 32,700 -2,182 Descending Boston Center
Sat 01:20:35 AM 43.3128 -72.7967 81° East 472 543 30,500 -2,237 Descending Boston Center
Sat 01:21:34 AM 43.3297 -72.6200 82° East 472 543 28,300 -2,200 Descending Boston Center
Sat 01:22:35 AM 43.3467 -72.4486 82° East 460 529 26,100 -2,083 Descending Boston Center
Sat 01:23:35 AM 43.3611 -72.2803 83° East 454 522 24,100 -2,017 Descending Boston Center
Sat 01:24:34 AM 43.3775 -72.1203 82° East 435 501 22,100 -2,000 Descending Boston Center
Sat 01:25:35 AM 43.3933 -71.9572 82° East 430 495 20,100 -2,083 Descending Boston Center
Sat 01:26:35 AM 43.4072 -71.7886 83° East 413 475 17,900 -1,900 Descending Boston Center
Sat 01:27:35 AM 43.4208 -71.6425 83° East 396 456 16,300 -1,623 Descending Boston Center
Sat 01:28:37 AM 43.4322 -71.4967 84° East 385 443 14,600 -1,550 Descending Boston Center
Sat 01:29:35 AM 43.4456 -71.3592 82° East 376 433 13,200 -1,436 Descending Boston Center
Sat 01:30:34 AM 43.4589 -71.2189 82° East 370 426 11,800 -1,109 Descending Boston Center
Sat 01:31:34 AM 43.4803 -71.0894 77° East 357 411 11,000 -400 Descending Boston Center
Sat 01:32:34 AM 43.5100 -70.9686 71° East 338 389 11,000 -148 Level Boston Center
Sat 01:33:36 AM 43.5400 -70.8647 68° East 297 342 10,700 -1,350 Descending Boston Center
Sat 01:34:34 AM 43.5825 -70.7778 56° Northeast 274 315 8,300 -2,420 Descending Boston Center
Sat 01:35:35 AM 43.6531 -70.7528 14° North 249 287 5,900 -2,300 Descending Boston Center
Sat 01:36:34 AM 43.6661 -70.6578 79° East 227 261 3,700 -1,613 Descending Boston Center
Sat 01:37:34 AM 43.6625 -70.5658 93° East 232 267 2,700 -645 Descending Boston Center
Sat 01:38:35 AM 43.6572 -70.4886 95° East 212 244 2,400 -595 Descending Boston Center
Sat 01:39:35 AM 43.6517 -70.4228 97° East 189 217 1,500 -908 Descending Boston Center
Sat 01:40:34 AM 43.6486 -70.3683 94° East 149 171 600 -655 Descending Boston Center
Sat 01:41:34 AM 43.6458 -70.3197 94° East 144 166 200 -400 Descending Boston Center
Sat 01:43:00 AM 43.6456 -70.3086 105° East  Level Estimated

Login

Don't have an account? Register now (free) for customized features, flight alerts, and more!